sensor_id;sensor_type;location;lat;lon;timestamp;temperature;humidity
5792;DHT22;2922;53.482;10.006;2023-07-30T00:02:01;17.10;99.90
5792;DHT22;2922;53.482;10.006;2023-07-30T00:04:27;17.10;99.90
5792;DHT22;2922;53.482;10.006;2023-07-30T00:06:53;17.10;99.90
5792;DHT22;2922;53.482;10.006;2023-07-30T00:09:18;17.10;99.90
5792;DHT22;2922;53.482;10.006;2023-07-30T00:11:44;17.10;99.90
5792;DHT22;2922;53.482;10.006;2023-07-30T00:14:09;17.10;99.90
5792;DHT22;2922;53.482;10.006;2023-07-30T00:16:35;17.10;99.90
5792;DHT22;2922;53.482;10.006;2023-07-30T00:19:00;17.10;99.90
5792;DHT22;2922;53.482;10.006;2023-07-30T00:21:26;17.00;99.90
5792;DHT22;2922;53.482;10.006;2023-07-30T00:23:51;17.00;99.90
5792;DHT22;2922;53.482;10.006;2023-07-30T00:26:17;17.00;99.90
5792;DHT22;2922;53.482;10.006;2023-07-30T00:28:42;17.00;99.90
5792;DHT22;2922;53.482;10.006;2023-07-30T00:31:08;17.00;99.90
5792;DHT22;2922;53.482;10.006;2023-07-30T00:33:33;17.10;99.90
5792;DHT22;2922;53.482;10.006;2023-07-30T00:35:59;17.10;99.90
5792;DHT22;2922;53.482;10.006;2023-07-30T00:38:25;17.10;99.90
5792;DHT22;2922;53.482;10.006;2023-07-30T00:40:50;17.10;99.90
5792;DHT22;2922;53.482;10.006;2023-07-30T00:43:16;17.10;99.90
5792;DHT22;2922;53.482;10.006;2023-07-30T00:45:44;17.10;99.90
5792;DHT22;2922;53.482;10.006;2023-07-30T00:48:11;17.10;99.90
5792;DHT22;2922;53.482;10.006;2023-07-30T00:50:38;17.10;99.90
5792;DHT22;2922;53.482;10.006;2023-07-30T00:53:04;17.10;99.90
5792;DHT22;2922;53.482;10.006;2023-07-30T00:55:30;17.20;99.90
5792;DHT22;2922;53.482;10.006;2023-07-30T00:57:57;17.20;99.90
5792;DHT22;2922;53.482;10.006;2023-07-30T01:00:23;17.10;99.90
5792;DHT22;2922;53.482;10.006;2023-07-30T01:02:51;17.30;99.90
5792;DHT22;2922;53.482;10.006;2023-07-30T01:05:16;17.20;99.90
5792;DHT22;2922;53.482;10.006;2023-07-30T01:07:42;17.20;99.90
5792;DHT22;2922;53.482;10.006;2023-07-30T01:10:08;17.20;99.90
5792;DHT22;2922;53.482;10.006;2023-07-30T01:12:34;17.20;99.90
5792;DHT22;2922;53.482;10.006;2023-07-30T01:15:01;17.10;99.90
5792;DHT22;2922;53.482;10.006;2023-07-30T01:17:27;17.10;99.90
5792;DHT22;2922;53.482;10.006;2023-07-30T01:19:53;17.10;99.90
5792;DHT22;2922;53.482;10.006;2023-07-30T01:22:22;17.20;99.90
5792;DHT22;2922;53.482;10.006;2023-07-30T01:24:49;17.10;99.90
5792;DHT22;2922;53.482;10.006;2023-07-30T01:27:25;17.10;99.90
5792;DHT22;2922;53.482;10.006;2023-07-30T01:30:17;17.10;99.90
5792;DHT22;2922;53.482;10.006;2023-07-30T01:32:45;17.00;99.90
5792;DHT22;2922;53.482;10.006;2023-07-30T01:35:15;17.00;99.90
5792;DHT22;2922;53.482;10.006;2023-07-30T01:37:41;17.00;99.90
5792;DHT22;2922;53.482;10.006;2023-07-30T01:40:09;17.00;99.90
5792;DHT22;2922;53.482;10.006;2023-07-30T01:42:35;16.90;99.90
5792;DHT22;2922;53.482;10.006;2023-07-30T01:45:00;16.90;99.90
5792;DHT22;2922;53.482;10.006;2023-07-30T01:47:26;17.00;99.90
5792;DHT22;2922;53.482;10.006;2023-07-30T01:49:51;16.90;99.90
5792;DHT22;2922;53.482;10.006;2023-07-30T01:52:17;16.90;99.90
5792;DHT22;2922;53.482;10.006;2023-07-30T01:54:42;16.90;99.90
5792;DHT22;2922;53.482;10.006;2023-07-30T01:57:08;16.80;99.90
5792;DHT22;2922;53.482;10.006;2023-07-30T01:59:33;16.90;99.90
5792;DHT22;2922;53.482;10.006;2023-07-30T02:01:59;16.80;99.90
5792;DHT22;2922;53.482;10.006;2023-07-30T02:04:25;16.80;99.90
5792;DHT22;2922;53.482;10.006;2023-07-30T02:06:50;16.80;99.90
5792;DHT22;2922;53.482;10.006;2023-07-30T02:09:16;16.80;99.90
5792;DHT22;2922;53.482;10.006;2023-07-30T02:11:41;16.80;99.90
5792;DHT22;2922;53.482;10.006;2023-07-30T02:14:09;16.80;99.90
5792;DHT22;2922;53.482;10.006;2023-07-30T02:16:34;16.80;99.90
5792;DHT22;2922;53.482;10.006;2023-07-30T02:19:00;16.70;99.90
5792;DHT22;2922;53.482;10.006;2023-07-30T02:21:26;16.80;99.90
5792;DHT22;2922;53.482;10.006;2023-07-30T02:23:51;16.70;99.90
5792;DHT22;2922;53.482;10.006;2023-07-30T02:26:17;16.80;99.90
5792;DHT22;2922;53.482;10.006;2023-07-30T02:28:42;16.80;99.90
5792;DHT22;2922;53.482;10.006;2023-07-30T02:31:08;16.70;99.90
5792;DHT22;2922;53.482;10.006;2023-07-30T02:33:34;16.60;99.90
5792;DHT22;2922;53.482;10.006;2023-07-30T02:35:59;16.60;99.90
5792;DHT22;2922;53.482;10.006;2023-07-30T02:38:25;16.60;99.90
5792;DHT22;2922;53.482;10.006;2023-07-30T02:40:51;16.60;99.90
5792;DHT22;2922;53.482;10.006;2023-07-30T02:43:16;16.50;99.90
5792;DHT22;2922;53.482;10.006;2023-07-30T02:45:42;16.50;99.90
5792;DHT22;2922;53.482;10.006;2023-07-30T02:48:07;16.50;99.90
5792;DHT22;2922;53.482;10.006;2023-07-30T02:50:33;16.50;99.90
5792;DHT22;2922;53.482;10.006;2023-07-30T02:52:58;16.40;99.90
5792;DHT22;2922;53.482;10.006;2023-07-30T02:55:24;16.40;99.90
5792;DHT22;2922;53.482;10.006;2023-07-30T02:57:49;16.30;99.90
5792;DHT22;2922;53.482;10.006;2023-07-30T03:00:15;16.30;99.90
5792;DHT22;2922;53.482;10.006;2023-07-30T03:02:41;16.20;99.90
5792;DHT22;2922;53.482;10.006;2023-07-30T03:05:07;16.20;99.90
5792;DHT22;2922;53.482;10.006;2023-07-30T03:07:32;16.20;99.90
5792;DHT22;2922;53.482;10.006;2023-07-30T03:09:58;16.20;99.90
5792;DHT22;2922;53.482;10.006;2023-07-30T03:12:23;16.10;99.90
5792;DHT22;2922;53.482;10.006;2023-07-30T03:14:49;16.10;99.90
5792;DHT22;2922;53.482;10.006;2023-07-30T03:17:15;16.10;99.90
5792;DHT22;2922;53.482;10.006;2023-07-30T03:19:40;16.10;99.90
5792;DHT22;2922;53.482;10.006;2023-07-30T03:22:06;16.00;99.90
5792;DHT22;2922;53.482;10.006;2023-07-30T03:24:31;16.00;99.90
5792;DHT22;2922;53.482;10.006;2023-07-30T03:26:57;16.00;99.90
5792;DHT22;2922;53.482;10.006;2023-07-30T03:29:22;16.00;99.90
5792;DHT22;2922;53.482;10.006;2023-07-30T03:31:48;16.00;99.90
5792;DHT22;2922;53.482;10.006;2023-07-30T03:34:13;16.00;99.90
5792;DHT22;2922;53.482;10.006;2023-07-30T03:36:39;16.00;99.90
5792;DHT22;2922;53.482;10.006;2023-07-30T03:39:05;15.90;99.90
5792;DHT22;2922;53.482;10.006;2023-07-30T03:41:31;16.00;99.90
5792;DHT22;2922;53.482;10.006;2023-07-30T03:43:56;16.00;99.90
5792;DHT22;2922;53.482;10.006;2023-07-30T03:46:22;16.00;99.90
5792;DHT22;2922;53.482;10.006;2023-07-30T03:48:47;16.00;99.90
5792;DHT22;2922;53.482;10.006;2023-07-30T03:51:13;16.00;99.90
5792;DHT22;2922;53.482;10.006;2023-07-30T03:53:38;16.00;99.90
5792;DHT22;2922;53.482;10.006;2023-07-30T03:56:04;16.00;99.90
5792;DHT22;2922;53.482;10.006;2023-07-30T03:58:29;16.00;99.90
5792;DHT22;2922;53.482;10.006;2023-07-30T04:00:56;16.00;99.90
5792;DHT22;2922;53.482;10.006;2023-07-30T04:03:21;16.10;99.90
5792;DHT22;2922;53.482;10.006;2023-07-30T04:05:47;16.00;99.90
5792;DHT22;2922;53.482;10.006;2023-07-30T04:08:12;16.00;99.90
5792;DHT22;2922;53.482;10.006;2023-07-30T04:10:38;16.00;99.90
5792;DHT22;2922;53.482;10.006;2023-07-30T04:13:04;16.10;99.90
5792;DHT22;2922;53.482;10.006;2023-07-30T04:15:29;16.10;99.90
5792;DHT22;2922;53.482;10.006;2023-07-30T04:17:55;16.10;99.90
5792;DHT22;2922;53.482;10.006;2023-07-30T04:20:20;16.00;99.90
5792;DHT22;2922;53.482;10.006;2023-07-30T04:22:46;16.00;99.90
5792;DHT22;2922;53.482;10.006;2023-07-30T04:25:11;16.00;99.90
5792;DHT22;2922;53.482;10.006;2023-07-30T04:27:37;16.10;99.90
5792;DHT22;2922;53.482;10.006;2023-07-30T04:30:07;16.00;99.90
5792;DHT22;2922;53.482;10.006;2023-07-30T04:32:32;16.00;99.90
5792;DHT22;2922;53.482;10.006;2023-07-30T04:34:58;16.00;99.90
5792;DHT22;2922;53.482;10.006;2023-07-30T04:37:24;16.00;99.90
5792;DHT22;2922;53.482;10.006;2023-07-30T04:39:49;16.00;99.90
5792;DHT22;2922;53.482;10.006;2023-07-30T04:42:15;16.00;99.90
5792;DHT22;2922;53.482;10.006;2023-07-30T04:44:41;16.10;99.90
5792;DHT22;2922;53.482;10.006;2023-07-30T04:47:06;16.10;99.90
5792;DHT22;2922;53.482;10.006;2023-07-30T04:49:32;16.10;99.90
5792;DHT22;2922;53.482;10.006;2023-07-30T04:51:58;16.20;99.90
5792;DHT22;2922;53.482;10.006;2023-07-30T04:54:23;16.20;99.90
5792;DHT22;2922;53.482;10.006;2023-07-30T04:56:49;16.20;99.90
5792;DHT22;2922;53.482;10.006;2023-07-30T04:59:14;16.30;99.90
5792;DHT22;2922;53.482;10.006;2023-07-30T05:01:40;16.20;99.90
5792;DHT22;2922;53.482;10.006;2023-07-30T05:04:06;16.30;99.90
5792;DHT22;2922;53.482;10.006;2023-07-30T05:06:31;16.40;99.90
5792;DHT22;2922;53.482;10.006;2023-07-30T05:08:58;16.40;99.90
5792;DHT22;2922;53.482;10.006;2023-07-30T05:11:23;16.50;99.90
5792;DHT22;2922;53.482;10.006;2023-07-30T05:13:49;16.50;99.90
5792;DHT22;2922;53.482;10.006;2023-07-30T05:16:14;16.50;99.90
5792;DHT22;2922;53.482;10.006;2023-07-30T05:18:40;16.60;99.90
5792;DHT22;2922;53.482;10.006;2023-07-30T05:21:05;16.50;99.90
5792;DHT22;2922;53.482;10.006;2023-07-30T05:23:31;16.60;99.90
5792;DHT22;2922;53.482;10.006;2023-07-30T05:25:56;16.60;99.90
5792;DHT22;2922;53.482;10.006;2023-07-30T05:28:22;16.60;99.90
5792;DHT22;2922;53.482;10.006;2023-07-30T05:30:48;16.60;99.90
5792;DHT22;2922;53.482;10.006;2023-07-30T05:33:13;16.70;99.90
5792;DHT22;2922;53.482;10.006;2023-07-30T05:35:39;16.70;99.90
5792;DHT22;2922;53.482;10.006;2023-07-30T05:38:04;16.80;99.90
5792;DHT22;2922;53.482;10.006;2023-07-30T05:40:30;16.80;99.90
5792;DHT22;2922;53.482;10.006;2023-07-30T05:42:55;16.80;99.90
5792;DHT22;2922;53.482;10.006;2023-07-30T05:45:21;16.90;99.90
5792;DHT22;2922;53.482;10.006;2023-07-30T05:47:46;16.90;99.90
5792;DHT22;2922;53.482;10.006;2023-07-30T05:50:12;16.90;99.90
5792;DHT22;2922;53.482;10.006;2023-07-30T05:52:37;17.00;99.90
5792;DHT22;2922;53.482;10.006;2023-07-30T05:55:03;17.00;99.90
5792;DHT22;2922;53.482;10.006;2023-07-30T05:57:30;17.10;99.90
5792;DHT22;2922;53.482;10.006;2023-07-30T05:59:55;17.20;99.90
5792;DHT22;2922;53.482;10.006;2023-07-30T06:02:21;17.20;99.90
5792;DHT22;2922;53.482;10.006;2023-07-30T06:04:47;17.20;99.90
5792;DHT22;2922;53.482;10.006;2023-07-30T06:07:14;17.20;99.90
5792;DHT22;2922;53.482;10.006;2023-07-30T06:09:39;17.30;99.90
5792;DHT22;2922;53.482;10.006;2023-07-30T06:12:05;17.30;99.90
5792;DHT22;2922;53.482;10.006;2023-07-30T06:14:30;17.40;99.90
5792;DHT22;2922;53.482;10.006;2023-07-30T06:16:56;17.40;99.90
5792;DHT22;2922;53.482;10.006;2023-07-30T06:19:21;17.50;99.90
5792;DHT22;2922;53.482;10.006;2023-07-30T06:21:47;17.50;99.90
5792;DHT22;2922;53.482;10.006;2023-07-30T06:24:13;17.60;99.90
5792;DHT22;2922;53.482;10.006;2023-07-30T06:26:38;17.70;99.90
5792;DHT22;2922;53.482;10.006;2023-07-30T06:29:04;17.80;99.90
5792;DHT22;2922;53.482;10.006;2023-07-30T06:31:29;17.90;99.90
5792;DHT22;2922;53.482;10.006;2023-07-30T06:33:55;17.90;99.90
5792;DHT22;2922;53.482;10.006;2023-07-30T06:36:21;17.90;99.90
5792;DHT22;2922;53.482;10.006;2023-07-30T06:38:46;18.00;99.90
5792;DHT22;2922;53.482;10.006;2023-07-30T06:41:12;18.10;99.90
5792;DHT22;2922;53.482;10.006;2023-07-30T06:43:38;18.20;99.90
5792;DHT22;2922;53.482;10.006;2023-07-30T06:46:04;18.20;99.90
5792;DHT22;2922;53.482;10.006;2023-07-30T06:48:29;18.10;99.90
5792;DHT22;2922;53.482;10.006;2023-07-30T06:50:55;18.10;99.90
5792;DHT22;2922;53.482;10.006;2023-07-30T06:53:20;18.00;99.90
5792;DHT22;2922;53.482;10.006;2023-07-30T06:55:46;18.00;99.90
5792;DHT22;2922;53.482;10.006;2023-07-30T06:58:11;18.00;99.90
5792;DHT22;2922;53.482;10.006;2023-07-30T07:00:37;18.10;99.90
5792;DHT22;2922;53.482;10.006;2023-07-30T07:03:03;18.00;99.90
5792;DHT22;2922;53.482;10.006;2023-07-30T07:05:29;18.10;99.90
5792;DHT22;2922;53.482;10.006;2023-07-30T07:07:55;18.20;99.90
5792;DHT22;2922;53.482;10.006;2023-07-30T07:10:20;18.10;99.90
5792;DHT22;2922;53.482;10.006;2023-07-30T07:12:46;18.10;99.90
5792;DHT22;2922;53.482;10.006;2023-07-30T07:15:12;18.00;99.90
5792;DHT22;2922;53.482;10.006;2023-07-30T07:17:37;18.10;99.90
5792;DHT22;2922;53.482;10.006;2023-07-30T07:20:03;18.20;99.90
5792;DHT22;2922;53.482;10.006;2023-07-30T07:22:30;18.30;99.90
5792;DHT22;2922;53.482;10.006;2023-07-30T07:24:55;18.40;99.90
5792;DHT22;2922;53.482;10.006;2023-07-30T07:27:21;18.40;99.90
5792;DHT22;2922;53.482;10.006;2023-07-30T07:29:49;18.40;99.90
5792;DHT22;2922;53.482;10.006;2023-07-30T07:32:15;18.50;99.90
5792;DHT22;2922;53.482;10.006;2023-07-30T07:34:41;18.60;99.90
5792;DHT22;2922;53.482;10.006;2023-07-30T07:37:06;18.60;99.90
5792;DHT22;2922;53.482;10.006;2023-07-30T07:39:33;18.70;99.90
5792;DHT22;2922;53.482;10.006;2023-07-30T07:41:58;18.70;99.90
5792;DHT22;2922;53.482;10.006;2023-07-30T07:44:24;19.00;99.90
5792;DHT22;2922;53.482;10.006;2023-07-30T07:46:50;19.10;99.90
5792;DHT22;2922;53.482;10.006;2023-07-30T07:49:15;19.40;99.90
5792;DHT22;2922;53.482;10.006;2023-07-30T07:51:41;19.40;99.90
5792;DHT22;2922;53.482;10.006;2023-07-30T07:54:06;19.50;99.90
5792;DHT22;2922;53.482;10.006;2023-07-30T07:56:32;19.60;99.90
5792;DHT22;2922;53.482;10.006;2023-07-30T07:58:58;19.80;99.90
5792;DHT22;2922;53.482;10.006;2023-07-30T08:01:23;20.00;99.90
5792;DHT22;2922;53.482;10.006;2023-07-30T08:03:49;20.00;99.90
5792;DHT22;2922;53.482;10.006;2023-07-30T08:06:14;20.10;99.90
5792;DHT22;2922;53.482;10.006;2023-07-30T08:08:40;20.10;99.90
5792;DHT22;2922;53.482;10.006;2023-07-30T08:11:07;20.10;99.90
5792;DHT22;2922;53.482;10.006;2023-07-30T08:13:33;20.50;99.90
5792;DHT22;2922;53.482;10.006;2023-07-30T08:15:58;20.50;99.90
5792;DHT22;2922;53.482;10.006;2023-07-30T08:18:24;20.50;99.90
5792;DHT22;2922;53.482;10.006;2023-07-30T08:20:50;20.60;99.90
5792;DHT22;2922;53.482;10.006;2023-07-30T08:23:15;20.30;99.90
5792;DHT22;2922;53.482;10.006;2023-07-30T08:25:41;20.30;99.90
5792;DHT22;2922;53.482;10.006;2023-07-30T08:28:06;20.30;99.90
5792;DHT22;2922;53.482;10.006;2023-07-30T08:30:32;20.40;99.90
5792;DHT22;2922;53.482;10.006;2023-07-30T08:32:58;20.40;99.90
5792;DHT22;2922;53.482;10.006;2023-07-30T08:35:23;20.50;99.90
5792;DHT22;2922;53.482;10.006;2023-07-30T08:37:49;20.60;99.90
5792;DHT22;2922;53.482;10.006;2023-07-30T08:40:15;20.80;99.90
5792;DHT22;2922;53.482;10.006;2023-07-30T08:42:41;20.90;99.90
5792;DHT22;2922;53.482;10.006;2023-07-30T08:45:07;21.10;99.90
5792;DHT22;2922;53.482;10.006;2023-07-30T08:47:34;21.30;99.90
5792;DHT22;2922;53.482;10.006;2023-07-30T08:50:00;21.40;99.90
5792;DHT22;2922;53.482;10.006;2023-07-30T08:52:26;21.60;99.90
5792;DHT22;2922;53.482;10.006;2023-07-30T08:54:54;21.70;99.90
5792;DHT22;2922;53.482;10.006;2023-07-30T08:57:21;21.80;99.90
5792;DHT22;2922;53.482;10.006;2023-07-30T08:59:54;21.60;99.90
5792;DHT22;2922;53.482;10.006;2023-07-30T09:02:41;21.20;99.90
5792;DHT22;2922;53.482;10.006;2023-07-30T09:05:08;21.00;99.90
5792;DHT22;2922;53.482;10.006;2023-07-30T09:07:34;21.10;99.90
5792;DHT22;2922;53.482;10.006;2023-07-30T09:10:00;21.40;99.90
5792;DHT22;2922;53.482;10.006;2023-07-30T09:12:29;21.80;99.90
5792;DHT22;2922;53.482;10.006;2023-07-30T09:14:56;21.90;99.90
5792;DHT22;2922;53.482;10.006;2023-07-30T09:17:21;21.70;99.90
5792;DHT22;2922;53.482;10.006;2023-07-30T09:19:47;21.50;99.90
5792;DHT22;2922;53.482;10.006;2023-07-30T09:22:13;21.40;99.90
5792;DHT22;2922;53.482;10.006;2023-07-30T09:24:43;21.40;99.90
5792;DHT22;2922;53.482;10.006;2023-07-30T09:27:09;21.40;99.90
5792;DHT22;2922;53.482;10.006;2023-07-30T09:29:35;21.50;99.90
5792;DHT22;2922;53.482;10.006;2023-07-30T09:32:00;21.70;99.90
5792;DHT22;2922;53.482;10.006;2023-07-30T09:34:26;21.90;99.90
5792;DHT22;2922;53.482;10.006;2023-07-30T09:36:55;21.80;99.90
5792;DHT22;2922;53.482;10.006;2023-07-30T09:39:25;21.70;99.90
5792;DHT22;2922;53.482;10.006;2023-07-30T09:41:53;21.60;99.90
5792;DHT22;2922;53.482;10.006;2023-07-30T09:44:24;21.50;99.90
5792;DHT22;2922;53.482;10.006;2023-07-30T09:46:50;21.40;99.90
5792;DHT22;2922;53.482;10.006;2023-07-30T09:49:17;21.50;99.90
5792;DHT22;2922;53.482;10.006;2023-07-30T09:51:43;21.50;99.90
5792;DHT22;2922;53.482;10.006;2023-07-30T09:54:11;21.60;99.90
5792;DHT22;2922;53.482;10.006;2023-07-30T09:56:38;21.70;99.90
5792;DHT22;2922;53.482;10.006;2023-07-30T09:59:05;21.80;99.90
5792;DHT22;2922;53.482;10.006;2023-07-30T10:01:31;21.80;99.90
5792;DHT22;2922;53.482;10.006;2023-07-30T10:03:58;21.60;99.90
5792;DHT22;2922;53.482;10.006;2023-07-30T10:06:26;21.80;99.90
5792;DHT22;2922;53.482;10.006;2023-07-30T10:08:55;21.60;99.90
5792;DHT22;2922;53.482;10.006;2023-07-30T10:11:22;21.60;99.90
5792;DHT22;2922;53.482;10.006;2023-07-30T10:13:49;21.50;99.90
5792;DHT22;2922;53.482;10.006;2023-07-30T10:16:15;21.40;99.90
5792;DHT22;2922;53.482;10.006;2023-07-30T10:18:42;21.40;99.90
5792;DHT22;2922;53.482;10.006;2023-07-30T10:21:09;21.50;99.90
5792;DHT22;2922;53.482;10.006;2023-07-30T10:23:35;21.60;99.90
5792;DHT22;2922;53.482;10.006;2023-07-30T10:26:10;21.80;99.90
5792;DHT22;2922;53.482;10.006;2023-07-30T10:28:36;21.80;99.90
5792;DHT22;2922;53.482;10.006;2023-07-30T10:31:07;21.90;99.90
5792;DHT22;2922;53.482;10.006;2023-07-30T10:33:52;21.80;99.90
5792;DHT22;2922;53.482;10.006;2023-07-30T10:39:20;21.60;99.90
5792;DHT22;2922;53.482;10.006;2023-07-30T10:41:50;21.60;99.90
5792;DHT22;2922;53.482;10.006;2023-07-30T10:44:23;21.60;99.90
5792;DHT22;2922;53.482;10.006;2023-07-30T10:46:50;21.50;99.90
5792;DHT22;2922;53.482;10.006;2023-07-30T10:49:16;21.40;99.90
5792;DHT22;2922;53.482;10.006;2023-07-30T10:51:41;21.30;99.90
5792;DHT22;2922;53.482;10.006;2023-07-30T10:54:07;21.10;99.90
5792;DHT22;2922;53.482;10.006;2023-07-30T10:56:35;21.20;99.90
5792;DHT22;2922;53.482;10.006;2023-07-30T10:59:03;21.20;99.90
5792;DHT22;2922;53.482;10.006;2023-07-30T11:01:31;21.30;99.90
5792;DHT22;2922;53.482;10.006;2023-07-30T11:03:56;21.40;99.90
5792;DHT22;2922;53.482;10.006;2023-07-30T11:06:26;21.50;99.90
5792;DHT22;2922;53.482;10.006;2023-07-30T11:08:52;21.60;99.90
5792;DHT22;2922;53.482;10.006;2023-07-30T11:11:18;21.80;99.90
5792;DHT22;2922;53.482;10.006;2023-07-30T11:13:45;22.00;99.90
5792;DHT22;2922;53.482;10.006;2023-07-30T11:16:15;22.00;99.90
5792;DHT22;2922;53.482;10.006;2023-07-30T11:18:42;22.20;99.90
5792;DHT22;2922;53.482;10.006;2023-07-30T11:21:12;22.30;99.90
5792;DHT22;2922;53.482;10.006;2023-07-30T11:23:40;22.40;99.90
5792;DHT22;2922;53.482;10.006;2023-07-30T11:26:08;22.50;99.90
5792;DHT22;2922;53.482;10.006;2023-07-30T11:28:36;22.90;99.90
5792;DHT22;2922;53.482;10.006;2023-07-30T11:31:07;23.20;99.90
5792;DHT22;2922;53.482;10.006;2023-07-30T11:33:35;22.90;99.90
5792;DHT22;2922;53.482;10.006;2023-07-30T11:36:02;22.60;99.90
5792;DHT22;2922;53.482;10.006;2023-07-30T11:38:29;22.40;99.90
5792;DHT22;2922;53.482;10.006;2023-07-30T11:40:56;22.10;99.90
5792;DHT22;2922;53.482;10.006;2023-07-30T11:43:22;22.20;99.90
5792;DHT22;2922;53.482;10.006;2023-07-30T11:45:49;22.60;99.90
5792;DHT22;2922;53.482;10.006;2023-07-30T11:48:14;22.70;99.90
5792;DHT22;2922;53.482;10.006;2023-07-30T11:50:47;23.00;99.90
5792;DHT22;2922;53.482;10.006;2023-07-30T11:53:14;23.00;99.90
5792;DHT22;2922;53.482;10.006;2023-07-30T11:55:41;22.90;99.90
5792;DHT22;2922;53.482;10.006;2023-07-30T11:58:08;23.20;99.90
5792;DHT22;2922;53.482;10.006;2023-07-30T12:00:40;23.50;99.90
5792;DHT22;2922;53.482;10.006;2023-07-30T12:03:10;24.00;99.90
5792;DHT22;2922;53.482;10.006;2023-07-30T12:05:38;24.00;99.90
5792;DHT22;2922;53.482;10.006;2023-07-30T12:08:05;23.80;99.90
5792;DHT22;2922;53.482;10.006;2023-07-30T12:10:43;23.50;99.90
5792;DHT22;2922;53.482;10.006;2023-07-30T12:13:16;23.30;99.90
5792;DHT22;2922;53.482;10.006;2023-07-30T12:15:55;23.30;99.90
5792;DHT22;2922;53.482;10.006;2023-07-30T12:18:22;23.40;99.90
5792;DHT22;2922;53.482;10.006;2023-07-30T12:20:50;23.50;99.90
5792;DHT22;2922;53.482;10.006;2023-07-30T12:23:19;23.60;99.90
5792;DHT22;2922;53.482;10.006;2023-07-30T12:25:46;23.70;99.90
5792;DHT22;2922;53.482;10.006;2023-07-30T12:28:12;23.80;99.90
5792;DHT22;2922;53.482;10.006;2023-07-30T12:30:38;23.80;99.90
5792;DHT22;2922;53.482;10.006;2023-07-30T12:33:05;23.80;99.90
5792;DHT22;2922;53.482;10.006;2023-07-30T12:35:31;24.10;99.90
5792;DHT22;2922;53.482;10.006;2023-07-30T12:37:57;24.20;99.90
5792;DHT22;2922;53.482;10.006;2023-07-30T12:40:23;24.40;99.90
5792;DHT22;2922;53.482;10.006;2023-07-30T12:42:49;24.70;99.90
5792;DHT22;2922;53.482;10.006;2023-07-30T12:45:14;25.00;99.90
5792;DHT22;2922;53.482;10.006;2023-07-30T12:47:40;25.20;99.90
5792;DHT22;2922;53.482;10.006;2023-07-30T12:50:06;24.90;99.90
5792;DHT22;2922;53.482;10.006;2023-07-30T12:52:33;24.90;99.90
5792;DHT22;2922;53.482;10.006;2023-07-30T12:54:59;24.90;99.90
5792;DHT22;2922;53.482;10.006;2023-07-30T12:57:24;25.00;99.90
5792;DHT22;2922;53.482;10.006;2023-07-30T12:59:50;24.90;99.90
5792;DHT22;2922;53.482;10.006;2023-07-30T13:02:15;24.80;99.90
5792;DHT22;2922;53.482;10.006;2023-07-30T13:04:41;24.70;99.90
5792;DHT22;2922;53.482;10.006;2023-07-30T13:07:06;24.30;99.90
5792;DHT22;2922;53.482;10.006;2023-07-30T13:09:32;23.80;99.90
5792;DHT22;2922;53.482;10.006;2023-07-30T13:11:58;23.40;99.90
5792;DHT22;2922;53.482;10.006;2023-07-30T13:14:23;23.10;99.90
5792;DHT22;2922;53.482;10.006;2023-07-30T13:16:49;22.20;99.90
5792;DHT22;2922;53.482;10.006;2023-07-30T13:19:14;20.30;99.90
5792;DHT22;2922;53.482;10.006;2023-07-30T13:21:40;19.00;99.90
5792;DHT22;2922;53.482;10.006;2023-07-30T13:24:06;18.60;99.90
5792;DHT22;2922;53.482;10.006;2023-07-30T13:26:31;18.30;99.90
5792;DHT22;2922;53.482;10.006;2023-07-30T13:28:57;17.70;99.90
5792;DHT22;2922;53.482;10.006;2023-07-30T13:31:22;17.40;99.90
5792;DHT22;2922;53.482;10.006;2023-07-30T13:33:48;17.40;99.90
5792;DHT22;2922;53.482;10.006;2023-07-30T13:36:14;17.20;99.90
5792;DHT22;2922;53.482;10.006;2023-07-30T13:38:40;17.20;99.90
5792;DHT22;2922;53.482;10.006;2023-07-30T13:41:06;17.20;99.90
5792;DHT22;2922;53.482;10.006;2023-07-30T13:43:32;17.00;99.90
5792;DHT22;2922;53.482;10.006;2023-07-30T13:45:58;17.00;99.90
5792;DHT22;2922;53.482;10.006;2023-07-30T13:48:24;16.90;99.90
5792;DHT22;2922;53.482;10.006;2023-07-30T13:50:50;16.90;99.90
5792;DHT22;2922;53.482;10.006;2023-07-30T13:53:15;16.90;99.90
5792;DHT22;2922;53.482;10.006;2023-07-30T13:55:41;16.90;99.90
5792;DHT22;2922;53.482;10.006;2023-07-30T13:58:07;16.80;99.90
5792;DHT22;2922;53.482;10.006;2023-07-30T14:00:33;16.90;99.90
5792;DHT22;2922;53.482;10.006;2023-07-30T14:02:59;16.90;99.90
5792;DHT22;2922;53.482;10.006;2023-07-30T14:05:24;17.10;99.90
5792;DHT22;2922;53.482;10.006;2023-07-30T14:07:50;17.10;99.90
5792;DHT22;2922;53.482;10.006;2023-07-30T14:10:19;17.20;99.90
5792;DHT22;2922;53.482;10.006;2023-07-30T14:12:45;17.20;99.90
5792;DHT22;2922;53.482;10.006;2023-07-30T14:15:10;17.50;99.90
5792;DHT22;2922;53.482;10.006;2023-07-30T14:17:36;17.90;99.90
5792;DHT22;2922;53.482;10.006;2023-07-30T14:20:01;18.10;99.90
5792;DHT22;2922;53.482;10.006;2023-07-30T14:22:27;18.30;99.90
5792;DHT22;2922;53.482;10.006;2023-07-30T14:24:53;18.40;99.90
5792;DHT22;2922;53.482;10.006;2023-07-30T14:27:19;18.60;99.90
5792;DHT22;2922;53.482;10.006;2023-07-30T14:29:44;18.60;99.90
5792;DHT22;2922;53.482;10.006;2023-07-30T14:32:10;18.70;99.90
5792;DHT22;2922;53.482;10.006;2023-07-30T14:34:36;18.80;99.90
5792;DHT22;2922;53.482;10.006;2023-07-30T14:37:01;18.70;99.90
5792;DHT22;2922;53.482;10.006;2023-07-30T14:39:27;18.80;99.90
5792;DHT22;2922;53.482;10.006;2023-07-30T14:41:52;18.90;99.90
5792;DHT22;2922;53.482;10.006;2023-07-30T14:44:18;19.20;99.90
5792;DHT22;2922;53.482;10.006;2023-07-30T14:46:44;19.20;99.90
5792;DHT22;2922;53.482;10.006;2023-07-30T14:49:10;19.30;99.90
5792;DHT22;2922;53.482;10.006;2023-07-30T14:51:35;19.40;99.90
5792;DHT22;2922;53.482;10.006;2023-07-30T14:54:01;19.50;99.90
5792;DHT22;2922;53.482;10.006;2023-07-30T14:56:28;19.70;99.90
5792;DHT22;2922;53.482;10.006;2023-07-30T14:58:54;19.80;99.90
5792;DHT22;2922;53.482;10.006;2023-07-30T15:01:21;19.80;99.90
5792;DHT22;2922;53.482;10.006;2023-07-30T15:03:47;19.70;99.90
5792;DHT22;2922;53.482;10.006;2023-07-30T15:06:13;19.70;99.90
5792;DHT22;2922;53.482;10.006;2023-07-30T15:08:38;19.80;99.90
5792;DHT22;2922;53.482;10.006;2023-07-30T15:11:04;19.90;99.90
5792;DHT22;2922;53.482;10.006;2023-07-30T15:13:29;20.10;99.90
5792;DHT22;2922;53.482;10.006;2023-07-30T15:15:55;20.10;99.90
5792;DHT22;2922;53.482;10.006;2023-07-30T15:18:21;20.10;99.90
5792;DHT22;2922;53.482;10.006;2023-07-30T15:20:47;20.10;99.90
5792;DHT22;2922;53.482;10.006;2023-07-30T15:23:13;20.10;99.90
5792;DHT22;2922;53.482;10.006;2023-07-30T15:25:39;20.10;99.90
5792;DHT22;2922;53.482;10.006;2023-07-30T15:28:05;20.10;99.90
5792;DHT22;2922;53.482;10.006;2023-07-30T15:30:31;20.10;99.90
5792;DHT22;2922;53.482;10.006;2023-07-30T15:32:57;20.20;99.90
5792;DHT22;2922;53.482;10.006;2023-07-30T15:35:23;20.30;99.90
5792;DHT22;2922;53.482;10.006;2023-07-30T15:37:48;20.20;99.90
5792;DHT22;2922;53.482;10.006;2023-07-30T15:40:14;20.00;99.90
5792;DHT22;2922;53.482;10.006;2023-07-30T15:42:40;19.80;99.90